Terminal Aerodrome Forecast
Issued by NWS

Home | Current Version | Previous Version | Text Only | Print | Product List | Glossary On
Versions: 1 2 3 4 5 6 7 8 9 10 11 12 13 14 15 16 17 18 19 20
000
FTAK31 PANC 261902 AAA
TAFAIL
TAF AMD
PAIL 261902Z 2619/2718 VRB04KT P6SM FEW002 SCT200
      TEMPO 2619/2620 OVC004
     FM262000 VRB05KT P6SM SCT200
      TEMPO 2620/2622 SCT008 BKN015
     FM270600 31008KT P6SM SKC=

USA.gov is the U.S. government's official web portal to all federal, state and local government web resources and services.